Time;durP1;ratioP1;P1;durP2;ratioP2;P2;SDS_P1;SDS_P2;PMS_P1;PMS_P2;Temp;Humidity;BMP_temperature;BMP_pressure;BME280_temperature;BME280_humidity;BME280_pressure;Samples;Min_cycle;Max_cycle;Signal;HPM_P1;HPM_P2
2022/07/16 00:03:59;;;;;;;3.15;0.45;;;17.00;66.60;;;;;;5077496;28;20044;-93
2022/07/16 00:06:26;;;;;;;3.63;0.55;;;17.00;67.00;;;;;;5055564;28;20473;-95
2022/07/16 00:08:52;;;;;;;1.25;0.50;;;17.00;67.40;;;;;;5055849;28;20097;-95
2022/07/16 00:11:19;;;;;;;4.15;0.70;;;16.90;67.80;;;;;;5055393;28;20032;-92
2022/07/16 00:13:46;;;;;;;4.90;0.80;;;16.80;68.20;;;;;;5055557;28;20069;-90
2022/07/16 00:16:12;;;;;;;3.83;0.90;;;16.70;68.60;;;;;;5055448;28;20048;-93
2022/07/16 00:21:25;;;;;;;3.05;0.80;;;16.60;69.30;;;;;;5072924;28;20105;-92
2022/07/16 00:23:51;;;;;;;1.52;0.70;;;16.60;69.50;;;;;;5073067;28;20028;-93
2022/07/16 00:26:16;;;;;;;;;;;16.50;70.00;;;;;;5055854;28;20478;-93
2022/07/16 00:28:42;;;;;;;3.47;1.00;;;16.50;70.00;;;;;;5072485;28;20399;-93
2022/07/16 00:31:07;;;;;;;;;;;16.50;70.10;;;;;;5056040;28;20032;-93
2022/07/16 00:33:33;;;;;;;5.57;0.88;;;16.40;70.90;;;;;;5056072;28;19915;-92
2022/07/16 00:35:59;;;;;;;;;;;16.30;71.60;;;;;;5054813;28;20057;-91
2022/07/16 00:38:25;;;;;;;9.50;0.75;;;16.30;71.50;;;;;;5052914;28;19912;-91
2022/07/16 00:40:50;;;;;;;4.63;0.70;;;16.30;71.50;;;;;;5055114;28;20485;-92
2022/07/16 00:43:16;;;;;;;;;;;16.30;71.40;;;;;;5073746;28;20058;-91
2022/07/16 00:45:42;;;;;;;6.47;0.80;;;16.20;71.80;;;;;;5073525;28;19904;-91
2022/07/16 00:48:08;;;;;;;;;;;16.20;72.00;;;;;;5056190;28;20081;-91
2022/07/16 00:50:36;;;;;;;3.05;1.13;;;16.10;72.00;;;;;;5055861;28;19904;-93
2022/07/16 00:53:03;;;;;;;3.00;0.70;;;16.10;72.80;;;;;;5078455;28;20044;-90
2022/07/16 00:55:29;;;;;;;3.78;0.90;;;16.00;73.00;;;;;;5075775;28;20021;-96
2022/07/16 00:57:56;;;;;;;5.43;1.08;;;16.00;72.60;;;;;;5079136;28;20040;-96
2022/07/16 01:00:21;;;;;;;5.85;0.85;;;16.00;72.80;;;;;;5069588;28;20029;-95
2022/07/16 01:02:47;;;;;;;;;;;16.00;73.00;;;;;;5057969;28;20047;-96
2022/07/16 01:05:13;;;;;;;2.25;0.63;;;15.90;73.30;;;;;;5056584;28;19912;-96
2022/07/16 01:07:39;;;;;;;;;;;15.80;73.70;;;;;;5055865;28;20103;-96
2022/07/16 01:10:05;;;;;;;1.02;0.50;;;15.70;74.20;;;;;;5073613;28;19904;-96
2022/07/16 01:12:31;;;;;;;2.72;0.85;;;15.70;74.00;;;;;;5075111;28;20523;-96
2022/07/16 01:15:01;;;;;;;4.10;0.85;;;15.70;74.40;;;;;;5074879;28;20047;-96
2022/07/16 01:17:27;;;;;;;6.20;1.13;;;15.60;74.80;;;;;;5074580;28;20028;-96
2022/07/16 01:19:52;;;;;;;3.83;0.95;;;15.60;75.30;;;;;;5062052;28;20115;-96
2022/07/16 01:22:19;;;;;;;;;;;15.50;75.50;;;;;;5083532;28;20569;-96
2022/07/16 01:24:45;;;;;;;3.80;0.70;;;15.40;75.90;;;;;;5067852;28;19888;-96
2022/07/16 01:27:10;;;;;;;;;;;15.50;76.30;;;;;;5070222;28;20036;-96
2022/07/16 01:29:36;;;;;;;5.50;1.55;;;15.40;76.50;;;;;;5079770;28;19908;-92
2022/07/16 01:32:02;;;;;;;;;;;15.40;76.40;;;;;;5071888;28;20497;-92
2022/07/16 01:34:28;;;;;;;4.57;1.00;;;15.40;76.80;;;;;;5072103;28;19904;-93
2022/07/16 01:36:58;;;;;;;;;;;15.40;77.00;;;;;;5056579;28;20036;-92
2022/07/16 01:39:25;;;;;;;1.65;0.70;;;15.40;77.30;;;;;;5050802;28;19961;-92
2022/07/16 01:41:53;;;;;;;3.65;0.70;;;15.40;77.30;;;;;;5048373;28;20405;-93
2022/07/16 01:44:19;;;;;;;4.68;1.17;;;15.40;77.60;;;;;;5040759;28;20032;-92
2022/07/16 01:46:45;;;;;;;4.35;0.85;;;15.30;77.90;;;;;;5062404;28;20032;-91
2022/07/16 01:49:10;;;;;;;;;;;15.30;78.50;;;;;;5057555;28;20043;-92
2022/07/16 01:51:36;;;;;;;3.10;1.00;;;15.30;79.00;;;;;;5063608;28;19916;-92
2022/07/16 01:54:02;;;;;;;;;;;15.20;79.10;;;;;;5071594;28;20029;-92
2022/07/16 01:56:27;;;;;;;2.17;0.90;;;15.20;79.30;;;;;;5051870;28;20005;-95
2022/07/16 01:58:53;;;;;;;3.10;0.98;;;15.20;79.40;;;;;;5068426;28;21298;-92
2022/07/16 02:01:19;;;;;;;2.40;0.73;;;15.20;79.80;;;;;;5025937;28;20036;-91
2022/07/16 02:03:44;;;;;;;;;;;15.20;80.70;;;;;;5031996;28;20037;-92
2022/07/16 02:06:10;;;;;;;3.63;0.82;;;15.10;81.00;;;;;;5029482;28;19916;-92
2022/07/16 02:08:35;;;;;;;;;;;15.10;81.30;;;;;;5032022;28;20029;-92
2022/07/16 02:11:01;;;;;;;3.60;0.93;;;15.10;82.00;;;;;;5025444;28;20584;-92
2022/07/16 02:13:27;;;;;;;1.92;0.70;;;15.00;82.00;;;;;;5026680;28;20075;-92
2022/07/16 02:15:52;;;;;;;;;;;15.00;82.40;;;;;;5034903;28;20097;-92
2022/07/16 02:18:18;;;;;;;1.38;0.68;;;15.00;83.10;;;;;;5063379;28;19920;-93
2022/07/16 02:20:44;;;;;;;2.90;1.10;;;14.90;83.20;;;;;;5052627;28;20036;-93
2022/07/16 02:23:09;;;;;;;;;;;14.90;83.60;;;;;;5051847;28;20490;-95
2022/07/16 02:25:35;;;;;;;8.32;1.10;;;14.90;84.00;;;;;;5034547;28;19927;-95
2022/07/16 02:28:06;;;;;;;;;;;14.90;84.70;;;;;;5041299;28;20111;-94
2022/07/16 02:30:40;;;;;;;2.15;0.70;;;14.90;85.00;;;;;;5053557;28;20483;-94
2022/07/16 02:33:08;;;;;;;4.45;1.20;;;14.90;85.10;;;;;;5067978;28;20057;-93
2022/07/16 02:35:35;;;;;;;1.98;0.60;;;14.90;85.90;;;;;;5074753;28;20020;-94
2022/07/16 02:38:00;;;;;;;6.38;0.85;;;14.90;86.50;;;;;;5089417;28;20028;-93
2022/07/16 02:40:27;;;;;;;;;;;14.80;86.80;;;;;;5072894;28;20031;-94
2022/07/16 02:42:53;;;;;;;3.08;0.90;;;14.90;87.30;;;;;;5090438;28;19916;-93
2022/07/16 02:45:19;;;;;;;3.28;0.90;;;14.90;87.70;;;;;;5073078;28;20032;-94
2022/07/16 02:47:45;;;;;;;2.20;0.80;;;14.90;87.90;;;;;;5091059;28;20103;-93
2022/07/16 02:50:10;;;;;;;;;;;14.90;88.80;;;;;;5090503;28;20106;-94
2022/07/16 02:52:36;;;;;;;3.00;0.70;;;14.90;89.30;;;;;;5094038;28;19908;-94
2022/07/16 02:55:03;;;;;;;;;;;14.90;89.80;;;;;;5095828;28;20013;-94
2022/07/16 02:57:28;;;;;;;8.68;0.85;;;14.80;90.20;;;;;;5073677;28;20003;-94
2022/07/16 02:59:54;;;;;;;2.90;0.90;;;14.80;90.50;;;;;;5070220;28;20064;-94
2022/07/16 03:02:20;;;;;;;;;;;14.80;90.90;;;;;;5057581;28;20058;-94
2022/07/16 03:04:45;;;;;;;3.55;0.82;;;14.80;91.20;;;;;;5056773;28;20354;-94
2022/07/16 03:07:11;;;;;;;;;;;14.80;91.80;;;;;;5057324;28;20043;-93
2022/07/16 03:09:36;;;;;;;3.90;1.00;;;14.80;91.80;;;;;;5058919;28;19905;-93
2022/07/16 03:12:02;;;;;;;;;;;14.80;92.00;;;;;;5075844;28;20052;-93
2022/07/16 03:14:28;;;;;;;5.75;1.40;;;14.80;92.30;;;;;;5056899;28;19911;-94
2022/07/16 03:16:53;;;;;;;;;;;14.80;92.70;;;;;;5074289;28;20032;-94
2022/07/16 03:19:19;;;;;;;7.38;1.33;;;14.80;93.00;;;;;;5073906;28;19963;-94
2022/07/16 03:21:44;;;;;;;;;;;14.80;93.40;;;;;;5056811;28;20497;-94
2022/07/16 03:24:10;;;;;;;11.90;2.50;;;14.90;93.60;;;;;;5074930;28;19917;-93
2022/07/16 03:26:35;;;;;;;;;;;14.90;93.80;;;;;;5056802;28;20036;-94
2022/07/16 03:29:01;;;;;;;2.70;0.75;;;14.90;94.10;;;;;;5056011;28;19908;-94
2022/07/16 03:31:26;;;;;;;;;;;15.00;94.10;;;;;;5056019;28;20048;-95
2022/07/16 03:33:52;;;;;;;9.23;1.10;;;15.10;94.10;;;;;;5056607;28;20325;-94
2022/07/16 03:36:18;;;;;;;;;;;15.10;94.10;;;;;;5056508;28;20473;-94
2022/07/16 03:39:00;;;;;;;13.40;1.70;;;15.10;94.30;;;;;;5055908;28;19912;-94
2022/07/16 03:41:26;;;;;;;4.18;0.82;;;15.20;94.60;;;;;;5056163;28;20029;-94
2022/07/16 03:43:52;;;;;;;;;;;15.20;94.70;;;;;;5056470;28;20032;-94
2022/07/16 03:46:18;;;;;;;10.63;1.38;;;15.20;94.70;;;;;;5055598;28;19904;-95
2022/07/16 03:48:44;;;;;;;1.90;0.80;;;15.40;94.70;;;;;;5055570;28;20090;-95
2022/07/16 03:51:10;;;;;;;;;;;15.50;94.70;;;;;;5056132;28;20024;-95
2022/07/16 03:53:36;;;;;;;2.10;0.70;;;15.50;94.50;;;;;;5056498;28;20525;-95
2022/07/16 03:56:03;;;;;;;6.45;2.10;;;15.70;94.40;;;;;;5056929;28;20125;-95
2022/07/16 03:58:29;;;;;;;5.20;1.15;;;15.70;94.20;;;;;;5055715;28;20523;-95
2022/07/16 04:00:55;;;;;;;5.75;1.30;;;15.80;94.10;;;;;;5071732;28;20051;-94
2022/07/16 04:03:21;;;;;;;3.40;0.80;;;15.90;93.90;;;;;;5054806;28;20032;-94
2022/07/16 04:05:47;;;;;;;2.58;1.08;;;16.00;93.90;;;;;;5073602;28;20489;-94
2022/07/16 04:08:12;;;;;;;;;;;16.10;93.80;;;;;;5073562;28;20117;-94
2022/07/16 04:10:38;;;;;;;5.18;1.05;;;16.30;93.60;;;;;;5072122;28;19908;-94
2022/07/16 04:13:04;;;;;;;;;;;16.50;93.00;;;;;;5074679;28;20512;-94
2022/07/16 04:15:29;;;;;;;8.10;1.55;;;16.70;92.50;;;;;;5055288;28;20386;-94
2022/07/16 04:17:55;;;;;;;;;;;16.90;92.30;;;;;;5073018;28;20024;-94
2022/07/16 04:20:21;;;;;;;2.67;0.90;;;17.00;91.90;;;;;;5055130;28;19908;-94
2022/07/16 04:22:47;;;;;;;;;;;17.10;91.70;;;;;;5055631;28;20040;-95
2022/07/16 04:25:13;;;;;;;3.22;0.70;;;17.10;91.50;;;;;;5073498;28;20383;-93
2022/07/16 04:27:39;;;;;;;2.17;0.73;;;17.20;91.20;;;;;;5055749;28;20510;-95
2022/07/16 04:30:07;;;;;;;8.13;1.35;;;17.30;91.10;;;;;;5056644;28;20062;-94
2022/07/16 04:32:34;;;;;;;5.80;0.80;;;17.30;90.90;;;;;;5074347;28;20059;-93
2022/07/16 04:34:59;;;;;;;4.60;1.00;;;17.50;90.70;;;;;;5074388;28;20036;-94
2022/07/16 04:37:25;;;;;;;5.07;1.50;;;17.60;90.60;;;;;;5056752;28;20090;-93
2022/07/16 04:39:52;;;;;;;6.75;1.20;;;17.60;90.50;;;;;;5056271;28;20151;-93
2022/07/16 04:42:18;;;;;;;4.38;0.70;;;17.70;90.40;;;;;;5056842;28;20032;-93
2022/07/16 04:44:44;;;;;;;3.92;0.70;;;17.70;90.40;;;;;;5080962;28;20043;-93
2022/07/16 04:47:09;;;;;;;5.88;1.00;;;17.80;90.10;;;;;;5090371;28;20016;-93
2022/07/16 04:49:35;;;;;;;5.25;0.85;;;17.90;90.20;;;;;;5061954;28;20028;-93
2022/07/16 04:52:01;;;;;;;4.20;1.20;;;18.00;89.90;;;;;;5055095;28;20047;-92
2022/07/16 04:54:27;;;;;;;5.43;0.82;;;18.10;88.40;;;;;;5064452;28;20020;-93
2022/07/16 04:56:53;;;;;;;3.28;1.05;;;18.20;88.00;;;;;;5056362;28;20020;-93
2022/07/16 04:59:19;;;;;;;4.93;0.88;;;18.30;87.50;;;;;;5055318;28;20032;-94
2022/07/16 05:01:44;;;;;;;5.93;1.05;;;18.40;87.10;;;;;;5054699;28;20052;-93
2022/07/16 05:04:11;;;;;;;3.28;0.90;;;18.50;86.70;;;;;;5054440;28;20033;-93
2022/07/16 05:06:37;;;;;;;3.85;0.82;;;18.70;86.10;;;;;;5054703;28;20681;-93
2022/07/16 05:09:03;;;;;;;5.25;1.42;;;18.80;85.20;;;;;;5054509;28;20111;-93
2022/07/16 05:11:29;;;;;;;3.63;0.85;;;19.00;83.30;;;;;;5054318;28;20048;-92
2022/07/16 05:13:55;;;;;;;2.83;0.82;;;19.10;82.70;;;;;;5054178;28;20435;-93
2022/07/16 05:16:22;;;;;;;3.95;1.05;;;19.30;81.80;;;;;;5054427;28;20557;-93
2022/07/16 05:18:48;;;;;;;4.57;0.85;;;19.50;81.10;;;;;;5071934;28;20027;-91
2022/07/16 05:21:14;;;;;;;6.07;0.90;;;19.80;79.70;;;;;;5053714;28;20024;-89
2022/07/16 05:23:40;;;;;;;11.10;1.60;;;19.90;78.30;;;;;;5053933;28;20040;-90
2022/07/16 05:26:06;;;;;;;3.13;0.80;;;20.10;76.90;;;;;;5054875;28;20031;-90
2022/07/16 05:28:32;;;;;;;3.15;0.60;;;20.30;76.70;;;;;;5054274;28;20039;-91
2022/07/16 05:30:57;;;;;;;4.50;0.90;;;20.40;76.10;;;;;;5054472;28;20024;-91
2022/07/16 05:33:23;;;;;;;2.58;0.80;;;20.50;75.50;;;;;;5053610;28;20680;-90
2022/07/16 05:35:49;;;;;;;3.20;0.80;;;20.60;74.20;;;;;;5054177;28;20090;-91
2022/07/16 05:38:15;;;;;;;9.10;1.50;;;20.70;73.90;;;;;;5054272;28;20033;-90
2022/07/16 05:40:40;;;;;;;2.10;0.85;;;20.90;73.80;;;;;;5054611;28;20032;-90
2022/07/16 05:43:07;;;;;;;2.47;0.80;;;21.00;73.10;;;;;;5054129;28;20037;-88
2022/07/16 05:45:32;;;;;;;3.22;0.88;;;21.10;72.30;;;;;;5051863;28;20070;-91
2022/07/16 05:47:58;;;;;;;5.00;1.17;;;21.10;71.70;;;;;;5050799;28;20303;-91
2022/07/16 05:50:24;;;;;;;2.92;1.08;;;21.10;71.90;;;;;;5053462;28;20028;-92
2022/07/16 05:52:50;;;;;;;4.22;1.02;;;21.20;71.30;;;;;;5054061;28;20388;-91
2022/07/16 05:55:15;;;;;;;7.32;1.00;;;21.50;70.40;;;;;;5053453;28;20027;-91
2022/07/16 05:57:41;;;;;;;2.80;0.85;;;22.20;68.50;;;;;;5053742;28;20538;-91
2022/07/16 06:00:12;;;;;;;4.32;0.80;;;22.80;66.50;;;;;;5053235;28;20024;-89
2022/07/16 06:02:42;;;;;;;1.80;0.85;;;23.50;65.10;;;;;;5053624;28;20515;-91
2022/07/16 06:05:08;;;;;;;4.43;0.95;;;24.50;62.40;;;;;;5054024;28;20070;-91
2022/07/16 06:07:34;;;;;;;2.75;1.00;;;25.70;57.90;;;;;;5053255;28;20507;-91
2022/07/16 06:10:00;;;;;;;3.70;0.88;;;26.60;54.40;;;;;;5053573;28;20110;-91
2022/07/16 06:12:26;;;;;;;5.70;0.90;;;27.60;51.30;;;;;;5071597;28;20029;-92
2022/07/16 06:14:52;;;;;;;1.92;0.95;;;28.70;48.40;;;;;;5053698;28;20225;-91
2022/07/16 06:17:18;;;;;;;3.78;1.00;;;29.70;44.20;;;;;;5053161;28;20698;-92
2022/07/16 06:19:43;;;;;;;5.38;1.00;;;30.50;42.20;;;;;;5053257;28;20115;-91
2022/07/16 06:22:10;;;;;;;1.35;0.70;;;31.30;40.00;;;;;;5053578;28;20119;-90
2022/07/16 06:24:36;;;;;;;4.90;1.13;;;32.00;38.30;;;;;;5053143;28;20119;-90
2022/07/16 06:27:03;;;;;;;6.35;1.20;;;32.60;36.50;;;;;;5053856;28;20453;-91
2022/07/16 06:29:29;;;;;;;3.40;1.10;;;32.80;35.40;;;;;;5053087;28;20063;-91
2022/07/16 06:31:55;;;;;;;1.98;0.90;;;33.00;34.70;;;;;;5053522;28;20040;-90
2022/07/16 06:34:21;;;;;;;2.67;1.00;;;33.30;34.30;;;;;;5056947;28;20040;-90
2022/07/16 06:36:46;;;;;;;5.50;1.40;;;33.90;32.90;;;;;;5074788;28;20032;-90
2022/07/16 06:39:12;;;;;;;10.27;1.10;;;34.30;32.10;;;;;;5056520;28;20123;-89
2022/07/16 06:41:39;;;;;;;3.00;1.10;;;34.50;31.90;;;;;;5057293;28;20025;-90
2022/07/16 06:44:09;;;;;;;5.00;0.98;;;34.40;31.30;;;;;;5056637;28;20128;-91
2022/07/16 06:46:35;;;;;;;6.20;1.20;;;34.80;30.80;;;;;;5056395;28;20056;-90
2022/07/16 06:49:01;;;;;;;1.90;0.90;;;34.90;30.50;;;;;;5057227;28;20082;-91
2022/07/16 06:51:27;;;;;;;2.65;0.90;;;34.70;30.70;;;;;;5074809;28;20013;-90
2022/07/16 06:53:53;;;;;;;2.80;0.95;;;34.60;30.20;;;;;;5080500;28;20032;-90
2022/07/16 06:56:18;;;;;;;7.28;1.13;;;34.90;30.00;;;;;;5073544;28;20035;-90
2022/07/16 06:58:44;;;;;;;4.32;0.90;;;35.20;29.60;;;;;;5074526;28;20020;-90
2022/07/16 07:01:11;;;;;;;10.48;1.02;;;35.10;29.20;;;;;;5091223;28;20481;-91
2022/07/16 07:03:40;;;;;;;1.83;1.02;;;35.10;29.00;;;;;;5094268;28;20032;-87
2022/07/16 07:06:07;;;;;;;3.13;1.10;;;34.70;29.20;;;;;;5094354;28;20036;-88
2022/07/16 07:08:33;;;;;;;3.65;1.30;;;34.60;29.90;;;;;;5076509;28;20031;-88
2022/07/16 07:11:01;;;;;;;4.63;0.93;;;34.50;29.40;;;;;;5094257;28;20099;-88
2022/07/16 07:13:30;;;;;;;3.40;1.10;;;34.70;29.50;;;;;;5056425;28;20044;-86
2022/07/16 07:15:56;;;;;;;6.97;1.00;;;34.50;29.70;;;;;;5073718;28;20024;-88
2022/07/16 07:18:22;;;;;;;5.22;1.13;;;34.70;29.10;;;;;;5056257;28;20026;-88
2022/07/16 07:20:48;;;;;;;3.20;0.98;;;34.70;29.10;;;;;;5056164;28;20088;-86
2022/07/16 07:23:14;;;;;;;5.85;0.93;;;34.60;29.30;;;;;;5054691;28;20043;-87
2022/07/16 07:25:39;;;;;;;4.32;0.70;;;34.90;29.00;;;;;;5054733;28;20064;-87
2022/07/16 07:28:05;;;;;;;1.58;1.00;;;34.80;29.30;;;;;;5055132;28;20025;-88
2022/07/16 07:30:31;;;;;;;9.95;1.33;;;34.70;29.30;;;;;;5055709;28;20035;-87
2022/07/16 07:32:59;;;;;;;7.32;0.90;;;34.80;28.70;;;;;;5038870;28;20139;-87
2022/07/16 07:35:24;;;;;;;2.75;1.08;;;35.00;29.10;;;;;;5035967;28;20281;-88
2022/07/16 07:37:50;;;;;;;3.33;0.98;;;34.90;29.20;;;;;;5036029;28;20029;-87
2022/07/16 07:40:16;;;;;;;3.92;0.88;;;35.10;29.20;;;;;;5035805;28;20021;-87
2022/07/16 07:42:41;;;;;;;2.80;0.88;;;35.30;28.70;;;;;;5035608;28;20052;-87
2022/07/16 07:45:08;;;;;;;3.80;1.27;;;35.20;28.50;;;;;;5034137;28;20017;-88
2022/07/16 07:47:33;;;;;;;2.85;0.82;;;35.40;28.50;;;;;;5053337;28;20033;-88
2022/07/16 07:50:00;;;;;;;5.53;1.13;;;35.50;28.40;;;;;;5053219;28;20032;-87
2022/07/16 07:52:26;;;;;;;5.18;1.15;;;35.50;28.10;;;;;;5035367;28;20029;-88
2022/07/16 07:54:51;;;;;;;2.22;0.80;;;35.30;27.90;;;;;;5036149;28;20035;-85
2022/07/16 07:57:17;;;;;;;2.55;1.10;;;34.80;28.20;;;;;;5053242;28;20029;-87
2022/07/16 07:59:43;;;;;;;2.00;0.85;;;34.80;28.80;;;;;;5040039;28;20025;-88
2022/07/16 08:02:08;;;;;;;2.70;1.25;;;34.90;28.30;;;;;;5055279;28;20024;-87
2022/07/16 08:04:34;;;;;;;4.72;0.82;;;34.80;28.40;;;;;;5055856;28;20145;-88
2022/07/16 08:07:00;;;;;;;6.50;1.42;;;35.30;27.80;;;;;;5055073;28;20063;-89
2022/07/16 08:09:25;;;;;;;6.22;1.10;;;35.20;28.60;;;;;;5035196;28;20052;-88
2022/07/16 08:11:51;;;;;;;2.58;0.80;;;35.00;28.20;;;;;;5035518;28;20064;-88
2022/07/16 08:14:17;;;;;;;1.75;0.73;;;35.00;27.20;;;;;;5034865;28;20056;-89
2022/07/16 08:16:42;;;;;;;2.22;0.82;;;35.10;27.50;;;;;;5034972;28;20025;-88
2022/07/16 08:19:08;;;;;;;4.28;1.25;;;35.30;27.50;;;;;;5035096;28;20052;-89
2022/07/16 08:21:34;;;;;;;3.45;1.08;;;35.30;27.30;;;;;;5035175;28;20120;-88
2022/07/16 08:26:46;;;;;;;5.13;0.82;;;35.20;26.70;;;;;;5053290;28;20084;-88
2022/07/16 08:29:12;;;;;;;2.08;0.90;;;35.30;26.50;;;;;;5034438;28;20436;-88
2022/07/16 08:31:37;;;;;;;2.17;0.90;;;35.30;26.90;;;;;;5041514;28;20564;-87
2022/07/16 08:34:03;;;;;;;3.25;1.02;;;35.50;26.20;;;;;;5045965;28;20017;-89
2022/07/16 08:36:29;;;;;;;6.25;0.93;;;35.40;26.30;;;;;;5048511;28;20405;-89
2022/07/16 08:38:54;;;;;;;6.82;1.35;;;35.60;26.00;;;;;;5073079;28;20042;-89
2022/07/16 08:41:20;;;;;;;2.22;1.30;;;35.90;26.30;;;;;;5055482;28;20032;-87
2022/07/16 08:43:46;;;;;;;3.08;0.95;;;35.90;26.30;;;;;;5048612;28;20029;-88
2022/07/16 08:46:14;;;;;;;2.88;0.80;;;36.00;25.60;;;;;;5034378;28;20029;-90
2022/07/16 08:48:41;;;;;;;2.10;0.88;;;36.20;25.00;;;;;;5034535;28;20086;-89
2022/07/16 08:51:09;;;;;;;3.35;0.75;;;36.30;24.20;;;;;;5052733;28;20024;-90
2022/07/16 08:53:36;;;;;;;2.53;0.80;;;36.30;23.70;;;;;;5039262;28;20029;-89
2022/07/16 08:56:02;;;;;;;2.70;0.77;;;36.30;23.60;;;;;;5050777;28;20036;-89
2022/07/16 08:58:32;;;;;;;3.40;1.10;;;36.30;23.10;;;;;;5035351;28;20025;-88
2022/07/16 09:00:58;;;;;;;2.10;0.70;;;35.80;24.10;;;;;;5034302;28;20021;-90
2022/07/16 09:03:24;;;;;;;1.95;0.80;;;35.60;24.40;;;;;;5033987;28;20124;-89
2022/07/16 09:05:50;;;;;;;2.38;1.10;;;35.70;24.10;;;;;;5032436;28;20120;-89
2022/07/16 09:08:17;;;;;;;2.05;0.88;;;35.70;24.40;;;;;;5033933;28;20029;-90
2022/07/16 09:10:42;;;;;;;4.65;0.98;;;35.40;25.30;;;;;;5034653;28;20497;-89
2022/07/16 09:13:12;;;;;;;2.78;0.80;;;35.40;25.60;;;;;;5051595;28;20075;-89
2022/07/16 09:15:40;;;;;;;2.13;1.05;;;35.50;25.50;;;;;;5034180;28;20389;-88
2022/07/16 09:18:25;;;;;;;5.70;1.02;;;35.60;25.50;;;;;;5034303;28;20064;-88
2022/07/16 09:20:50;;;;;;;2.08;1.02;;;35.80;25.10;;;;;;5033865;28;20056;-90
2022/07/16 09:23:30;;;;;;;3.92;0.80;;;35.90;24.90;;;;;;5034375;28;20071;-88
2022/07/16 09:25:59;;;;;;;2.58;0.90;;;35.90;24.40;;;;;;5033712;28;20025;-89
2022/07/16 09:28:25;;;;;;;2.58;0.85;;;35.70;24.50;;;;;;5033839;28;20032;-91
2022/07/16 09:30:52;;;;;;;7.32;0.98;;;35.90;24.90;;;;;;5033711;28;20033;-88
2022/07/16 09:33:22;;;;;;;3.03;0.77;;;36.00;24.60;;;;;;5033863;28;20049;-87
2022/07/16 09:36:04;;;;;;;2.08;1.13;;;36.00;24.20;;;;;;5033756;28;20025;-88
2022/07/16 09:38:51;;;;;;;3.53;1.13;;;35.90;24.10;;;;;;5033691;28;20053;-88
2022/07/16 09:41:19;;;;;;;1.98;0.90;;;35.90;24.20;;;;;;5051318;28;20107;-90
2022/07/16 09:43:45;;;;;;;4.70;0.88;;;35.60;24.20;;;;;;5032941;28;20036;-88
2022/07/16 09:46:20;;;;;;;4.80;0.95;;;35.50;24.60;;;;;;5033956;28;20029;-89
2022/07/16 09:48:46;;;;;;;5.03;0.90;;;35.50;24.60;;;;;;5033053;28;20025;-89
2022/07/16 09:51:27;;;;;;;2.28;0.70;;;35.60;24.50;;;;;;5033263;28;20261;-89
2022/07/16 09:53:54;;;;;;;7.43;0.90;;;35.50;24.50;;;;;;5051334;28;20516;-89
2022/07/16 09:56:27;;;;;;;3.45;1.10;;;35.50;24.50;;;;;;5033841;28;20039;-89
2022/07/16 09:58:55;;;;;;;3.58;1.00;;;35.60;24.90;;;;;;5032839;28;20492;-88
2022/07/16 10:01:21;;;;;;;2.15;0.90;;;35.60;24.60;;;;;;5033633;28;20028;-88
2022/07/16 10:03:49;;;;;;;3.13;0.90;;;35.60;24.80;;;;;;5033326;28;20405;-89
2022/07/16 10:06:15;;;;;;;2.08;0.77;;;35.50;24.30;;;;;;5033246;28;20024;-89
2022/07/16 10:08:43;;;;;;;3.65;1.20;;;35.00;24.60;;;;;;5032868;28;20068;-89
2022/07/16 10:11:10;;;;;;;1.65;0.65;;;34.80;25.10;;;;;;5051141;28;20021;-89
2022/07/16 10:13:37;;;;;;;2.60;1.05;;;34.30;25.50;;;;;;5033547;28;20029;-88
2022/07/16 10:16:03;;;;;;;1.20;0.80;;;33.60;25.60;;;;;;5033511;28;20035;-92
2022/07/16 10:18:42;;;;;;;8.55;1.00;;;33.20;26.60;;;;;;5033893;28;20071;-90
2022/07/16 10:21:20;;;;;;;2.80;0.93;;;32.60;27.00;;;;;;5032886;28;20017;-89
2022/07/16 10:24:03;;;;;;;1.73;0.70;;;32.30;27.30;;;;;;5033426;28;20033;-91
2022/07/16 10:26:30;;;;;;;1.50;0.70;;;32.30;27.30;;;;;;5033413;28;20025;-91
2022/07/16 10:28:56;;;;;;;2.17;0.82;;;32.20;27.40;;;;;;5033531;28;20029;-90
2022/07/16 10:31:38;;;;;;;4.13;1.42;;;32.20;27.40;;;;;;5036191;28;20035;-89
2022/07/16 10:34:33;;;;;;;3.53;1.20;;;32.10;27.40;;;;;;5053380;28;20033;-89
2022/07/16 10:36:59;;;;;;;3.05;0.98;;;31.80;27.30;;;;;;5052829;28;20016;-89
2022/07/16 10:39:26;;;;;;;4.10;0.98;;;31.60;28.00;;;;;;5053143;28;20074;-90
2022/07/16 10:41:55;;;;;;;4.75;0.65;;;31.40;28.00;;;;;;5053221;28;20443;-90
2022/07/16 10:44:22;;;;;;;9.25;1.08;;;31.30;28.20;;;;;;5053429;28;20028;-90
2022/07/16 10:47:01;;;;;;;3.20;0.82;;;31.10;28.00;;;;;;5051168;28;20032;-90
2022/07/16 10:49:29;;;;;;;3.72;1.00;;;31.10;28.30;;;;;;5052326;28;20029;-91
2022/07/16 10:51:57;;;;;;;3.63;0.90;;;31.00;28.20;;;;;;5053818;28;20020;-92
2022/07/16 10:54:28;;;;;;;3.20;0.70;;;31.10;28.50;;;;;;5081846;28;20044;-92
2022/07/16 10:56:56;;;;;;;4.32;1.00;;;31.20;28.50;;;;;;5054305;28;20020;-92
2022/07/16 10:59:29;;;;;;;7.97;1.13;;;31.20;28.20;;;;;;5070394;28;20032;-93
2022/07/16 11:01:58;;;;;;;3.47;1.10;;;31.10;28.10;;;;;;5053120;28;20016;-94
2022/07/16 11:04:38;;;;;;;2.88;0.85;;;30.90;28.20;;;;;;5070815;28;20032;-90
2022/07/16 11:07:13;;;;;;;2.88;0.77;;;30.80;28.60;;;;;;5052731;28;20021;-91
2022/07/16 11:09:44;;;;;;;1.90;0.88;;;30.70;28.40;;;;;;5052786;28;20032;-90
2022/07/16 11:12:20;;;;;;;2.42;1.02;;;30.70;29.10;;;;;;5052937;28;20021;-92
2022/07/16 11:14:49;;;;;;;4.03;0.95;;;30.70;28.40;;;;;;5053149;28;20158;-92
2022/07/16 11:17:16;;;;;;;1.95;0.80;;;30.70;28.40;;;;;;5052678;28;20119;-91
2022/07/16 11:19:48;;;;;;;1.95;0.75;;;30.70;28.40;;;;;;5055737;28;20130;-91
2022/07/16 11:22:22;;;;;;;2.55;1.02;;;30.70;28.80;;;;;;5055779;28;20543;-91
2022/07/16 11:24:51;;;;;;;5.95;0.93;;;30.70;28.40;;;;;;5074219;28;20103;-91
2022/07/16 11:27:23;;;;;;;4.25;0.77;;;30.70;28.20;;;;;;5058662;28;20048;-91
2022/07/16 11:29:57;;;;;;;3.45;0.80;;;30.70;28.50;;;;;;5075951;28;20601;-91
2022/07/16 11:32:24;;;;;;;7.25;1.08;;;30.70;28.70;;;;;;5076484;28;20054;-92
2022/07/16 11:34:49;;;;;;;4.03;1.15;;;30.50;28.40;;;;;;5076774;28;20028;-91
2022/07/16 11:37:16;;;;;;;2.67;1.02;;;30.30;28.50;;;;;;5057208;28;20058;-93
2022/07/16 11:39:42;;;;;;;4.15;1.10;;;30.10;28.90;;;;;;5056499;28;20144;-91
2022/07/16 11:42:08;;;;;;;3.83;1.10;;;30.20;29.10;;;;;;5056543;28;20484;-91
2022/07/16 11:44:37;;;;;;;4.38;1.15;;;30.30;28.80;;;;;;5055806;28;20043;-92
2022/07/16 11:47:05;;;;;;;4.47;1.40;;;30.50;29.00;;;;;;5074373;28;20100;-91
2022/07/16 11:49:36;;;;;;;5.57;1.00;;;30.50;28.90;;;;;;5055899;28;20064;-92
2022/07/16 11:52:05;;;;;;;3.72;0.90;;;30.50;28.70;;;;;;5073485;28;20032;-90
2022/07/16 11:54:37;;;;;;;2.25;0.95;;;30.40;28.90;;;;;;5055942;28;20028;-91
2022/07/16 11:57:02;;;;;;;9.20;1.10;;;30.40;28.80;;;;;;5055720;28;20035;-93
2022/07/16 11:59:32;;;;;;;7.80;1.35;;;30.40;29.80;;;;;;5053302;28;20024;-92
2022/07/16 12:02:05;;;;;;;5.88;0.90;;;30.50;29.40;;;;;;5054280;28;20583;-90
2022/07/16 12:04:39;;;;;;;7.88;1.05;;;30.40;29.10;;;;;;5056832;28;20075;-93
2022/07/16 12:07:08;;;;;;;3.17;1.40;;;30.50;29.50;;;;;;5073865;28;20255;-93
2022/07/16 12:09:45;;;;;;;5.90;1.15;;;30.30;29.10;;;;;;5056646;28;20031;-90
2022/07/16 12:12:32;;;;;;;6.28;0.90;;;30.30;29.40;;;;;;5074124;28;20499;-91
2022/07/16 12:15:05;;;;;;;3.53;0.90;;;30.00;29.30;;;;;;5070486;28;20012;-91
2022/07/16 12:17:41;;;;;;;8.27;1.10;;;29.80;29.50;;;;;;5094230;28;20051;-89
2022/07/16 12:20:10;;;;;;;5.88;1.30;;;29.90;29.60;;;;;;5072921;28;20028;-89
2022/07/16 12:23:02;;;;;;;1.65;0.80;;;29.90;29.80;;;;;;5061091;28;20040;-89
2022/07/16 12:25:36;;;;;;;7.20;1.25;;;30.10;29.70;;;;;;5056403;28;20027;-88
2022/07/16 12:28:22;;;;;;;4.63;0.90;;;30.10;29.80;;;;;;5055366;28;20130;-89
2022/07/16 12:30:55;;;;;;;;;;;30.00;29.10;;;;;;5054641;28;20021;-91
2022/07/16 12:33:23;;;;;;;4.45;0.88;;;29.90;29.30;;;;;;5056383;28;20368;-88
2022/07/16 12:35:50;;;;;;;3.33;0.82;;;29.80;29.20;;;;;;5055311;28;20074;-89
2022/07/16 12:38:38;;;;;;;3.17;0.90;;;29.70;29.30;;;;;;5073302;28;20032;-90
2022/07/16 12:41:06;;;;;;;2.28;1.13;;;29.40;29.40;;;;;;5057811;28;20174;-90
2022/07/16 12:43:32;;;;;;;3.05;0.75;;;29.30;29.80;;;;;;5079079;28;20032;-90
2022/07/16 12:46:03;;;;;;;6.28;0.75;;;29.40;30.00;;;;;;5058053;28;20054;-90
2022/07/16 12:48:30;;;;;;;6.68;1.00;;;29.50;29.50;;;;;;5081618;28;20024;-88
2022/07/16 12:50:56;;;;;;;4.20;0.68;;;29.60;29.60;;;;;;5067059;28;20024;-89
2022/07/16 12:53:22;;;;;;;3.85;1.00;;;29.60;29.70;;;;;;5064872;28;20032;-90
2022/07/16 12:58:48;;;;;;;4.15;1.13;;;29.80;29.80;;;;;;5086496;28;20058;-91
2022/07/16 13:01:20;;;;;;;2.75;0.90;;;30.00;29.90;;;;;;5061011;28;20040;-91
2022/07/16 13:03:47;;;;;;;2.85;1.05;;;30.40;29.50;;;;;;5054905;28;20067;-91
2022/07/16 13:06:14;;;;;;;2.85;0.82;;;30.50;29.40;;;;;;5054580;28;20465;-91
2022/07/16 13:08:40;;;;;;;4.53;1.20;;;30.70;29.60;;;;;;5054715;28;20035;-89